| time (UTC) | temp F | wind direction | speed knots | gust knots | rain 1hr in | rain 24hr in | rain mn in | humidity % | barometer mb |
| 20260503213021 | 66 | 237 | 11.3 | 23.5 | 0.00 | 0.00 | 0.00 | 44 | 1008.2 |
| 20260503211512 | 66 | 175 | 6.1 | 21.7 | 0.00 | 0.00 | 0.00 | 43 | 1008.5 |
| 20260503210011 | 65 | 192 | 8.7 | 19.1 | 0.00 | 0.00 | 0.00 | 45 | 1008.7 |
| 20260503204505 | 64 | 225 | 10.4 | 22.6 | 0.00 | 0.00 | 0.00 | 44 | 1009.0 |
| 20260503203002 | 64 | 331 | 13.9 | 25.2 | 0.00 | 0.00 | 0.00 | 45 | 1009.1 |
| 20260503201600 | 63 | 197 | 10.4 | 20.0 | 0.00 | 0.00 | 0.00 | 48 | 1009.5 |
| 20260503200058 | 62 | 232 | 13.0 | 20.9 | 0.00 | 0.00 | 0.00 | 48 | 1009.7 |
| 20260503194614 | 61 | 189 | 12.2 | 19.1 | 0.00 | 0.00 | 0.00 | 55 | 1009.9 |
| 20260503193052 | 60 | 202 | 11.3 | 27.8 | 0.00 | 0.00 | 0.00 | 55 | 1010.1 |
| 20260503191557 | 59 | 175 | 8.7 | 22.6 | 0.00 | 0.00 | 0.00 | 54 | 1010.5 |
| 20260503190051 | 57 | 183 | 7.8 | 20.0 | 0.00 | 0.00 | 0.00 | 59 | 1010.7 |
| 20260503184545 | 56 | 179 | 9.6 | 16.5 | 0.00 | 0.00 | 0.00 | 61 | 1010.9 |
| 20260503183052 | 55 | 190 | 9.6 | 20.0 | 0.00 | 0.00 | 0.00 | 63 | 1011.3 |
| 20260503181557 | 54 | 173 | 7.0 | 20.9 | 0.00 | 0.00 | 0.00 | 64 | 1012.0 |
| 20260503180049 | 54 | 220 | 7.8 | 18.2 | 0.00 | 0.00 | 0.00 | 64 | 1012.7 |
| 20260503174547 | 54 | 209 | 8.7 | 18.2 | 0.00 | 0.00 | 0.00 | 66 | 1013.1 |
| 20260503173042 | 53 | 189 | 10.4 | 19.1 | 0.00 | 0.00 | 0.00 | 68 | 1013.6 |
| 20260503171540 | 52 | 233 | 8.7 | 19.1 | 0.00 | 0.00 | 0.00 | 71 | 1013.9 |
| 20260503081543 | 47 | 246 | 2.6 | 8.7 | 0.00 | 0.00 | 0.00 | 58 | 1016.1 |
| 20260503071534 | 48 | 205 | 3.5 | 11.3 | 0.00 | 0.00 | 0.00 | 55 | 1016.3 |
| 20260503054533 | 49 | 217 | 2.6 | 8.7 | 0.00 | 0.00 | 0.00 | 54 | 1017.1 |
| 20260503053022 | 49 | 213 | 2.6 | 8.7 | 0.00 | 0.00 | 0.00 | 55 | 1017.3 |
| 20260503051520 | 49 | 201 | 3.5 | 6.1 | 0.00 | 0.00 | 0.00 | 55 | 1017.4 |
| 20260503050019 | 49 | 240 | 1.7 | 6.1 | 0.00 | 0.00 | 0.00 | 55 | 1017.4 |
| 20260503044518 | 49 | 228 | 3.5 | 6.1 | 0.00 | 0.00 | 0.00 | 54 | 1017.5 |
| 20260503043018 | 50 | 216 | 2.6 | 7.0 | 0.00 | 0.00 | 0.00 | 54 | 1017.5 |
| 20260503041518 | 50 | 207 | 2.6 | 10.4 | 0.00 | 0.00 | 0.00 | 53 | 1017.5 |
| 20260503040027 | 50 | 218 | 1.7 | 7.8 | 0.00 | 0.00 | 0.00 | 53 | 1017.6 |
| 20260503034515 | 50 | 178 | 2.6 | 6.1 | 0.00 | 0.00 | 0.00 | 53 | 1017.7 |
| 20260503033014 | 51 | 209 | 3.5 | 6.1 | 0.00 | 0.00 | 0.00 | 52 | 1017.7 |
| 20260503031514 | 51 | 211 | 1.7 | 6.1 | 0.00 | 0.00 | 0.00 | 52 | 1017.9 |
| 20260503030014 | 51 | 191 | 2.6 | 6.1 | 0.00 | 0.00 | 0.00 | 51 | 1018.0 |
| 20260503024513 | 51 | 199 | 1.7 | 6.1 | 0.00 | 0.00 | 0.00 | 51 | 1018.0 |
| 20260503023014 | 51 | 209 | 0.9 | 5.2 | 0.00 | 0.00 | 0.00 | 51 | 1018.0 |
| 20260503021516 | 51 | 200 | 1.7 | 4.3 | 0.00 | 0.00 | 0.00 | 52 | 1017.9 |
| 20260503020012 | 51 | 184 | 1.7 | 4.3 | 0.00 | 0.00 | 0.00 | 57 | 1017.7 |
| 20260503014511 | 50 | 131 | 0.0 | 2.6 | 0.00 | 0.00 | 0.00 | 62 | 1017.8 |
| 20260503013011 | 50 | 122 | 0.0 | 1.7 | 0.00 | 0.00 | 0.00 | 64 | 1017.7 |
| 20260503011523 | 50 | 122 | 0.0 | 3.5 | 0.00 | 0.00 | 0.00 | 64 | 1017.8 |
| 20260503010010 | 51 | 113 | 0.9 | 3.5 | 0.00 | 0.00 | 0.00 | 63 | 1017.7 |
| 20260503004508 | 51 | 114 | 0.0 | 3.5 | 0.00 | 0.00 | 0.00 | 60 | 1017.8 |
| 20260503003008 | 52 | 112 | 0.0 | 1.7 | 0.00 | 0.00 | 0.00 | 60 | 1017.9 |
| 20260503001508 | 52 | 146 | 1.7 | 6.1 | 0.00 | 0.00 | 0.00 | 61 | 1018.0 |
| 20260503000010 | 52 | 123 | 2.6 | 4.3 | 0.00 | 0.00 | 0.00 | 61 | 1017.9 |
| 20260502234520 | 51 | 135 | 0.0 | 4.3 | 0.00 | 0.00 | 0.00 | 62 | 1018.1 |
| 20260502233005 | 50 | 118 | 1.7 | 5.2 | 0.00 | 0.00 | 0.00 | 64 | 1018.2 |
| 20260502231505 | 51 | 83 | 4.3 | 7.8 | 0.00 | 0.00 | 0.00 | 63 | 1018.3 |
| 20260502230005 | 51 | 92 | 3.5 | 8.7 | 0.00 | 0.00 | 0.00 | 59 | 1018.3 |
| 20260502224502 | 51 | 107 | 2.6 | 8.7 | 0.00 | 0.00 | 0.00 | 60 | 1018.6 |
| 20260502223002 | 51 | 138 | 3.5 | 6.1 | 0.00 | 0.00 | 0.00 | 60 | 1018.6 |
| 20260502221605 | 50 | 111 | 1.7 | 7.8 | 0.00 | 0.00 | 0.00 | 61 | 1018.6 |
| 20260502220146 | 51 | 98 | 4.3 | 7.8 | 0.00 | 0.00 | 0.00 | 58 | 1018.7 |
| 20260502214602 | 51 | 106 | 2.6 | 7.0 | 0.00 | 0.00 | 0.00 | 56 | 1018.7 |